createdAt,value
2023-12-11T00:00:46.507Z,9.00
2023-12-11T00:01:49.156Z,11.00
2023-12-11T00:02:51.605Z,9.00
2023-12-11T00:03:54.997Z,3.70
2023-12-11T00:04:57.888Z,9.40
2023-12-11T00:06:00.686Z,10.10
2023-12-11T00:07:03.311Z,8.90
2023-12-11T00:08:07.333Z,8.30
2023-12-11T00:09:10.881Z,7.60
2023-12-11T00:10:14.272Z,10.60
2023-12-11T00:11:16.554Z,8.00
2023-12-11T00:12:18.853Z,10.10
2023-12-11T00:13:21.217Z,8.30
2023-12-11T00:14:23.608Z,7.80
2023-12-11T00:15:26.043Z,10.00
2023-12-11T00:16:28.552Z,8.40
2023-12-11T00:17:31.318Z,7.20
2023-12-11T00:18:34.301Z,7.30
2023-12-11T00:19:37.407Z,9.50
2023-12-11T00:20:40.068Z,7.30
2023-12-11T00:21:43.013Z,4.00
2023-12-11T00:22:45.881Z,7.45
2023-12-11T00:23:48.936Z,11.18
2023-12-11T00:24:51.804Z,9.55
2023-12-11T00:25:54.318Z,10.73
2023-12-11T00:26:56.743Z,10.00
2023-12-11T00:27:59.584Z,10.10
2023-12-11T00:29:01.942Z,7.60
2023-12-11T00:30:05.195Z,8.50
2023-12-11T00:32:10.578Z,4.82
2023-12-11T00:33:12.933Z,6.70
2023-12-11T00:34:15.540Z,8.10
2023-12-11T00:35:18.257Z,9.70
2023-12-11T00:36:22.273Z,7.90
2023-12-11T00:37:25.190Z,8.70
2023-12-11T00:38:28.020Z,7.82
2023-12-11T00:39:31.259Z,9.00
2023-12-11T00:40:35.461Z,4.90
2023-12-11T00:41:37.896Z,6.80
2023-12-11T00:42:40.508Z,6.90
2023-12-11T00:43:45.596Z,8.10
2023-12-11T00:44:47.222Z,10.60
2023-12-11T00:45:49.625Z,5.50
2023-12-11T00:46:52.532Z,7.73
2023-12-11T00:47:55.120Z,7.80
2023-12-11T00:48:57.737Z,8.60
2023-12-11T00:50:02.796Z,5.60
2023-12-11T00:51:05.055Z,6.80
2023-12-11T00:52:08.413Z,8.80
2023-12-11T00:53:10.726Z,8.80
2023-12-11T00:54:13.488Z,7.80
2023-12-11T00:55:15.925Z,8.20
2023-12-11T00:56:20.422Z,7.40
2023-12-11T00:57:22.680Z,7.80
2023-12-11T00:58:24.938Z,8.00
2023-12-11T00:59:27.182Z,1.20
2023-12-11T01:00:30.232Z,11.30
2023-12-11T01:01:33.175Z,9.30
2023-12-11T01:02:35.662Z,7.36
2023-12-11T01:03:39.196Z,10.00
2023-12-11T01:04:42.739Z,7.70
2023-12-11T01:05:45.210Z,7.30
2023-12-11T01:06:47.805Z,9.70
2023-12-11T01:07:50.176Z,10.60
2023-12-11T01:08:53.102Z,8.40
2023-12-11T01:09:56.299Z,9.91
2023-12-11T01:11:00.203Z,10.40
2023-12-11T01:12:02.659Z,9.60
2023-12-11T01:13:05.387Z,8.50
2023-12-11T01:14:07.618Z,9.40
2023-12-11T01:15:10.231Z,9.50
2023-12-11T01:16:12.975Z,9.00
2023-12-11T01:17:37.168Z,12.00
2023-12-11T01:18:19.723Z,11.30
2023-12-11T01:19:22.156Z,8.20
2023-12-11T01:20:26.334Z,7.60
2023-12-11T01:21:28.839Z,8.90
2023-12-11T01:22:31.117Z,8.30
2023-12-11T01:23:33.891Z,10.70
2023-12-11T01:24:36.199Z,8.50
2023-12-11T01:25:38.921Z,7.80
2023-12-11T01:26:41.604Z,7.73
2023-12-11T01:27:44.370Z,9.20
2023-12-11T01:28:46.993Z,10.18
2023-12-11T01:29:49.744Z,9.50
2023-12-11T01:30:52.324Z,9.50
2023-12-11T01:31:54.824Z,8.10
2023-12-11T01:32:57.149Z,6.10
2023-12-11T01:34:00.140Z,8.30
2023-12-11T01:35:02.486Z,8.20
2023-12-11T01:36:05.663Z,9.10
2023-12-11T01:37:08.310Z,7.40
2023-12-11T01:38:10.689Z,9.60
2023-12-11T01:39:13.116Z,8.60
2023-12-11T01:40:16.614Z,8.10
2023-12-11T01:41:18.931Z,10.30
2023-12-11T01:42:21.670Z,9.60
2023-12-11T01:43:24.044Z,9.10
2023-12-11T01:44:26.512Z,7.80
2023-12-11T01:45:29.004Z,8.50
2023-12-11T01:46:33.239Z,8.80
2023-12-11T01:47:35.663Z,9.00
2023-12-11T01:48:38.925Z,8.70
2023-12-11T01:49:42.283Z,11.60
2023-12-11T01:50:45.685Z,6.80
2023-12-11T01:51:48.990Z,7.60
2023-12-11T01:52:51.508Z,13.30
2023-12-11T01:53:53.923Z,6.00
2023-12-11T01:54:56.303Z,11.20
2023-12-11T01:55:59.018Z,8.40
2023-12-11T01:57:01.827Z,8.30
2023-12-11T01:58:06.624Z,9.40
2023-12-11T01:59:09.428Z,10.80
2023-12-11T02:00:14.819Z,10.80
2023-12-11T02:01:19.704Z,12.60
2023-12-11T02:02:22.628Z,10.40
2023-12-11T02:03:25.297Z,9.20
2023-12-11T02:04:27.748Z,6.60
2023-12-11T02:05:30.204Z,7.70
2023-12-11T02:06:33.062Z,10.30
2023-12-11T02:07:35.431Z,12.70
2023-12-11T02:08:37.745Z,12.70
2023-12-11T02:09:41.011Z,11.40
2023-12-11T02:10:44.180Z,8.60
2023-12-11T02:11:47.581Z,10.73
2023-12-11T02:12:50.361Z,11.40
2023-12-11T02:13:53.097Z,9.60
2023-12-11T02:14:55.488Z,10.10
2023-12-11T02:15:58.072Z,14.10
2023-12-11T02:17:02.595Z,12.55
2023-12-11T02:18:05.713Z,11.60
2023-12-11T02:19:08.190Z,13.50
2023-12-11T02:20:12.220Z,14.00
2023-12-11T02:21:15.416Z,13.60
2023-12-11T02:22:18.270Z,16.00
2023-12-11T02:23:30.876Z,13.45
2023-12-11T02:24:36.990Z,11.90
2023-12-11T02:25:41.203Z,11.50
2023-12-11T02:26:44.518Z,15.60
2023-12-11T02:27:46.861Z,13.55
2023-12-11T02:28:49.527Z,11.60
2023-12-11T02:29:52.157Z,13.10
2023-12-11T02:30:54.600Z,11.80
2023-12-11T02:31:57.286Z,11.80
2023-12-11T02:32:59.991Z,13.50
2023-12-11T02:34:02.649Z,12.70
2023-12-11T02:35:06.061Z,9.90
2023-12-11T02:36:09.217Z,14.00
2023-12-11T02:37:11.758Z,15.20
2023-12-11T02:38:14.094Z,11.00
2023-12-11T02:39:16.416Z,15.00
2023-12-11T02:40:19.606Z,12.90
2023-12-11T02:41:21.884Z,12.60
2023-12-11T02:42:24.175Z,12.30
2023-12-11T02:43:26.601Z,11.60
2023-12-11T02:44:29.329Z,12.00
2023-12-11T02:45:31.721Z,13.40
2023-12-11T02:46:40.853Z,14.80
2023-12-11T02:47:43.402Z,14.70
2023-12-11T02:48:45.883Z,9.70
2023-12-11T02:49:48.389Z,13.30
2023-12-11T02:50:51.444Z,11.50
2023-12-11T02:51:54.103Z,10.91
2023-12-11T02:54:07.179Z,12.50
2023-12-11T02:55:09.481Z,14.70
2023-12-11T02:56:13.044Z,12.60
2023-12-11T02:57:15.424Z,12.90
2023-12-11T02:58:17.879Z,12.40
2023-12-11T02:59:20.499Z,16.60
2023-12-11T03:00:24.890Z,15.70
2023-12-11T03:01:27.322Z,11.70
2023-12-11T03:02:29.946Z,8.10
2023-12-11T03:03:32.367Z,14.50
2023-12-11T03:04:34.923Z,11.30
2023-12-11T03:05:37.913Z,12.90
2023-12-11T03:06:40.925Z,9.50
2023-12-11T03:07:43.361Z,13.40
2023-12-11T03:08:45.652Z,12.80
2023-12-11T03:09:47.980Z,11.00
2023-12-11T03:10:50.720Z,13.00
2023-12-11T03:11:53.790Z,13.55
2023-12-11T03:12:56.127Z,13.10
2023-12-11T03:13:58.501Z,12.80
2023-12-11T03:15:01.829Z,12.00
2023-12-11T03:16:05.010Z,14.10
2023-12-11T03:17:07.632Z,13.40
2023-12-11T03:18:11.549Z,13.90
2023-12-11T03:19:14.021Z,10.60
2023-12-11T03:20:18.438Z,13.40
2023-12-11T03:21:20.726Z,12.90
2023-12-11T03:22:23.282Z,14.90
2023-12-11T03:23:26.230Z,11.30
2023-12-11T03:24:28.485Z,13.00
2023-12-11T03:25:31.262Z,12.30
2023-12-11T03:26:34.219Z,13.00
2023-12-11T03:27:36.649Z,14.70
2023-12-11T03:28:39.122Z,14.50
2023-12-11T03:29:41.609Z,10.40
2023-12-11T03:30:44.317Z,9.80
2023-12-11T03:31:46.757Z,17.90
2023-12-11T03:32:49.258Z,10.20
2023-12-11T03:33:52.168Z,11.10
2023-12-11T03:34:54.751Z,12.20
2023-12-11T03:35:57.019Z,13.40
2023-12-11T03:36:59.627Z,16.30
2023-12-11T03:38:01.936Z,13.70
2023-12-11T03:39:04.750Z,15.10
2023-12-11T03:40:09.014Z,14.60
2023-12-11T03:41:12.095Z,13.20
2023-12-11T03:42:14.521Z,13.27
2023-12-11T03:43:17.303Z,10.80
2023-12-11T03:44:19.671Z,7.50
2023-12-11T03:45:22.303Z,13.70
2023-12-11T03:46:25.248Z,13.09
2023-12-11T03:47:27.818Z,16.40
2023-12-11T03:48:30.585Z,12.90
2023-12-11T03:49:33.615Z,12.40
2023-12-11T03:50:36.364Z,12.90
2023-12-11T03:51:38.729Z,10.60
2023-12-11T03:52:42.110Z,11.30
2023-12-11T03:53:44.470Z,16.50
2023-12-11T03:54:47.139Z,14.00
2023-12-11T03:55:49.445Z,16.50
2023-12-11T03:56:52.243Z,12.70
2023-12-11T03:57:54.691Z,15.00
2023-12-11T03:58:57.343Z,11.80
2023-12-11T03:59:59.948Z,12.70
2023-12-11T04:01:02.444Z,15.50
2023-12-11T04:02:05.785Z,13.30
2023-12-11T04:03:08.695Z,11.90
2023-12-11T04:04:11.129Z,15.10
2023-12-11T04:05:13.557Z,14.20
2023-12-11T04:06:17.479Z,15.90
2023-12-11T04:07:19.847Z,8.50
2023-12-11T04:08:22.591Z,18.30
2023-12-11T04:09:25.075Z,12.70
2023-12-11T04:10:27.901Z,10.82
2023-12-11T04:11:30.258Z,16.40
2023-12-11T04:12:32.834Z,14.50
2023-12-11T04:13:35.738Z,15.70
2023-12-11T04:14:38.068Z,23.40
2023-12-11T04:15:40.435Z,17.80
2023-12-11T04:16:43.993Z,17.55
2023-12-11T04:17:46.843Z,18.73
2023-12-11T04:18:49.294Z,15.70
2023-12-11T04:19:52.282Z,15.20
2023-12-11T04:20:56.209Z,19.90
2023-12-11T04:21:58.907Z,18.10
2023-12-11T04:23:01.160Z,19.90
2023-12-11T04:24:04.308Z,19.00
2023-12-11T04:25:07.069Z,18.50
2023-12-11T04:26:11.529Z,19.40
2023-12-11T04:27:13.900Z,20.40
2023-12-11T04:28:16.754Z,21.00
2023-12-11T04:29:19.076Z,18.90
2023-12-11T04:30:23.328Z,20.20
2023-12-11T04:31:25.628Z,20.90
2023-12-11T04:32:28.351Z,19.50
2023-12-11T04:33:30.910Z,16.20
2023-12-11T04:34:33.538Z,18.90
2023-12-11T04:35:35.956Z,16.70
2023-12-11T04:36:43.333Z,17.40
2023-12-11T04:37:46.304Z,17.80
2023-12-11T04:38:48.630Z,15.80
2023-12-11T04:39:51.445Z,19.30
2023-12-11T04:40:54.437Z,23.20
2023-12-11T04:41:57.075Z,24.20
2023-12-11T04:42:59.470Z,22.30
2023-12-11T04:44:02.446Z,19.60
2023-12-11T04:45:05.867Z,23.36
2023-12-11T04:46:09.829Z,21.40
2023-12-11T04:47:12.202Z,18.90
2023-12-11T04:48:14.713Z,19.40
2023-12-11T04:49:17.235Z,22.10
2023-12-11T04:50:21.281Z,27.80
2023-12-11T04:51:23.746Z,20.18
2023-12-11T04:52:26.185Z,24.80
2023-12-11T04:53:28.509Z,18.20
2023-12-11T04:54:30.912Z,20.10
2023-12-11T04:55:33.312Z,26.70
2023-12-11T04:56:36.173Z,17.90
2023-12-11T04:57:38.470Z,20.70
2023-12-11T04:58:40.746Z,23.30
2023-12-11T04:59:44.241Z,23.60
2023-12-11T05:00:49.487Z,17.80
2023-12-11T05:01:52.003Z,26.36
2023-12-11T05:02:54.842Z,21.30
2023-12-11T05:03:57.747Z,22.73
2023-12-11T05:05:00.062Z,20.10
2023-12-11T05:06:02.513Z,17.80
2023-12-11T05:07:04.859Z,18.10
2023-12-11T05:08:07.164Z,18.70
2023-12-11T05:09:10.036Z,6.40
2023-12-11T05:10:13.994Z,21.50
2023-12-11T05:11:16.900Z,21.10
2023-12-11T05:12:19.468Z,19.36
2023-12-11T05:13:22.301Z,24.50
2023-12-11T05:14:24.795Z,23.36
2023-12-11T05:15:27.157Z,23.20
2023-12-11T05:16:31.647Z,22.70
2023-12-11T05:17:34.743Z,28.00
2023-12-11T05:18:37.406Z,24.00
2023-12-11T05:19:40.397Z,25.70
2023-12-11T05:20:43.193Z,21.30
2023-12-11T05:21:46.139Z,22.50
2023-12-11T05:22:51.316Z,25.09
2023-12-11T05:23:53.705Z,20.00
2023-12-11T05:24:56.416Z,20.10
2023-12-11T05:25:58.889Z,20.10
2023-12-11T05:27:03.167Z,23.40
2023-12-11T05:28:05.470Z,25.70
2023-12-11T05:29:07.770Z,22.00
2023-12-11T05:30:12.362Z,19.80
2023-12-11T05:31:15.857Z,25.20
2023-12-11T05:32:18.150Z,20.20
2023-12-11T05:33:20.560Z,20.80
2023-12-11T05:34:23.076Z,15.50
2023-12-11T05:35:26.130Z,17.60
2023-12-11T05:36:29.313Z,16.40
2023-12-11T05:37:32.553Z,14.55
2023-12-11T05:38:35.666Z,16.30
2023-12-11T05:39:41.420Z,17.60
2023-12-11T05:40:44.562Z,16.60
2023-12-11T05:41:47.172Z,17.60
2023-12-11T05:42:50.054Z,15.20
2023-12-11T05:43:52.710Z,15.09
2023-12-11T05:44:54.952Z,17.10
2023-12-11T05:45:57.775Z,21.90
2023-12-11T05:47:00.669Z,16.90
2023-12-11T05:48:03.319Z,11.40
2023-12-11T05:49:06.203Z,11.36
2023-12-11T05:50:10.298Z,14.90
2023-12-11T05:51:13.095Z,13.82
2023-12-11T05:52:16.109Z,16.18
2023-12-11T05:54:35.931Z,19.20
2023-12-11T05:55:38.959Z,15.70
2023-12-11T05:56:41.649Z,15.40
2023-12-11T05:57:46.306Z,12.50
2023-12-11T05:58:48.553Z,12.50
2023-12-11T05:59:51.072Z,15.36
2023-12-11T06:00:54.192Z,16.60
2023-12-11T06:01:56.690Z,14.64
2023-12-11T06:02:59.521Z,14.60
2023-12-11T06:04:02.496Z,12.20
2023-12-11T06:05:06.067Z,16.90
2023-12-11T06:06:17.999Z,11.90
2023-12-11T06:07:20.329Z,12.90
2023-12-11T06:08:23.733Z,16.70
2023-12-11T06:09:27.118Z,14.40
2023-12-11T06:10:30.334Z,12.40
2023-12-11T06:11:33.537Z,19.00
2023-12-11T06:12:37.059Z,16.50
2023-12-11T06:13:39.447Z,18.40
2023-12-11T06:14:44.529Z,18.50
2023-12-11T06:15:46.540Z,21.50
2023-12-11T06:16:50.000Z,18.80
2023-12-11T06:17:52.526Z,15.45
2023-12-11T06:18:55.116Z,16.10
2023-12-11T06:19:57.571Z,17.60
2023-12-11T06:21:02.894Z,16.73
2023-12-11T06:22:05.813Z,20.40
2023-12-11T06:23:08.080Z,21.10
2023-12-11T06:24:10.466Z,16.30
2023-12-11T06:25:13.388Z,16.90
2023-12-11T06:26:31.024Z,12.50
2023-12-11T06:27:34.001Z,15.40
2023-12-11T06:29:56.090Z,19.50
2023-12-11T06:30:59.287Z,18.10
2023-12-11T06:32:01.981Z,13.36
2023-12-11T06:33:04.269Z,23.20
2023-12-11T06:34:07.152Z,21.60
2023-12-11T06:35:10.776Z,18.09
2023-12-11T06:36:14.577Z,20.00
2023-12-11T06:37:17.008Z,24.30
2023-12-11T06:38:20.552Z,23.50
2023-12-11T06:39:23.236Z,27.55
2023-12-11T06:40:26.714Z,30.90
2023-12-11T06:41:29.147Z,32.90
2023-12-11T06:42:31.819Z,34.30
2023-12-11T06:43:34.174Z,30.40
2023-12-11T06:44:38.811Z,54.20
2023-12-11T06:45:41.262Z,56.00
2023-12-11T06:46:43.675Z,43.40
2023-12-11T06:47:46.449Z,36.40
2023-12-11T06:48:49.394Z,28.60
2023-12-11T06:49:51.979Z,23.10
2023-12-11T06:50:54.570Z,16.50
2023-12-11T06:51:58.407Z,15.10
2023-12-11T06:53:00.915Z,14.60
2023-12-11T06:54:03.331Z,16.20
2023-12-11T06:55:06.350Z,14.90
2023-12-11T06:56:11.632Z,13.60
2023-12-11T06:57:13.927Z,10.60
2023-12-11T06:58:16.458Z,7.10
2023-12-11T06:59:19.237Z,8.80
2023-12-11T07:00:23.212Z,9.50
2023-12-11T07:01:33.439Z,7.00
2023-12-11T07:02:36.217Z,5.90
2023-12-11T07:03:40.564Z,13.40
2023-12-11T07:04:43.790Z,9.00
2023-12-11T07:05:47.416Z,9.10
2023-12-11T07:06:50.854Z,6.90
2023-12-11T07:07:53.268Z,7.90
2023-12-11T07:08:55.959Z,6.00
2023-12-11T07:09:59.305Z,6.20
2023-12-11T07:11:02.689Z,5.60
2023-12-11T07:12:05.746Z,5.40
2023-12-11T07:13:08.545Z,6.90
2023-12-11T07:14:11.519Z,6.90
2023-12-11T07:15:14.428Z,8.18
2023-12-11T07:16:18.267Z,9.70
2023-12-11T07:17:21.305Z,6.80
2023-12-11T07:18:24.037Z,6.27
2023-12-11T07:19:29.137Z,5.90
2023-12-11T07:20:31.764Z,4.80
2023-12-11T07:21:34.082Z,8.40
2023-12-11T07:22:36.513Z,6.20
2023-12-11T07:23:39.805Z,3.70
2023-12-11T07:24:42.290Z,6.60
2023-12-11T07:25:44.700Z,5.90
2023-12-11T07:26:47.228Z,3.20
2023-12-11T07:27:49.954Z,6.10
2023-12-11T07:28:52.239Z,12.10
2023-12-11T07:29:54.579Z,54.60
2023-12-11T07:30:57.183Z,26.90
2023-12-11T07:31:59.485Z,17.80
2023-12-11T07:33:02.055Z,8.00
2023-12-11T07:34:04.665Z,5.90
2023-12-11T07:35:09.563Z,7.10
2023-12-11T07:36:13.742Z,3.90
2023-12-11T07:37:16.183Z,5.20
2023-12-11T07:38:18.620Z,4.60
2023-12-11T07:39:21.076Z,5.50
2023-12-11T07:40:25.228Z,7.40
2023-12-11T07:41:28.069Z,3.73
2023-12-11T07:42:30.748Z,5.50
2023-12-11T07:43:34.118Z,3.70
2023-12-11T07:44:37.536Z,4.70
2023-12-11T07:45:40.103Z,4.82
2023-12-11T07:46:43.488Z,4.27
2023-12-11T07:47:47.222Z,3.60
2023-12-11T07:48:50.784Z,7.60
2023-12-11T07:49:54.058Z,4.90
2023-12-11T07:50:56.491Z,5.70
2023-12-11T07:51:59.328Z,5.70
2023-12-11T07:53:02.266Z,4.18
2023-12-11T07:54:04.608Z,7.80
2023-12-11T07:55:07.726Z,7.20
2023-12-11T07:56:22.804Z,5.00
2023-12-11T07:57:25.757Z,2.00
2023-12-11T07:58:28.195Z,3.90
2023-12-11T07:59:30.429Z,4.00
2023-12-11T08:00:33.835Z,0.20
2023-12-11T08:01:36.969Z,4.36
2023-12-11T08:02:39.772Z,4.45
2023-12-11T08:03:42.427Z,2.73
2023-12-11T08:04:45.486Z,5.90
2023-12-11T08:05:48.290Z,5.10
2023-12-11T08:06:51.096Z,7.30
2023-12-11T08:07:53.399Z,7.60
2023-12-11T08:08:55.789Z,7.50
2023-12-11T08:09:58.173Z,7.50
2023-12-11T08:11:01.183Z,10.10
2023-12-11T08:12:03.945Z,11.60
2023-12-11T08:13:06.669Z,11.45
2023-12-11T08:14:09.010Z,15.90
2023-12-11T08:15:11.304Z,13.00
2023-12-11T08:16:16.664Z,14.30
2023-12-11T08:17:19.341Z,13.40
2023-12-11T08:18:21.730Z,13.70
2023-12-11T08:19:24.043Z,9.50
2023-12-11T08:20:28.189Z,9.50
2023-12-11T08:21:31.344Z,13.30
2023-12-11T08:22:33.820Z,10.40
2023-12-11T08:23:36.056Z,12.20
2023-12-11T08:24:38.368Z,12.30
2023-12-11T08:25:40.726Z,9.70
2023-12-11T08:26:43.801Z,8.40
2023-12-11T08:27:47.058Z,8.55
2023-12-11T08:28:49.274Z,6.80
2023-12-11T08:29:52.180Z,8.00
2023-12-11T08:30:55.312Z,9.10
2023-12-11T08:31:58.049Z,10.00
2023-12-11T08:33:00.505Z,13.10
2023-12-11T08:34:02.991Z,87.80
2023-12-11T08:35:06.111Z,97.00
2023-12-11T08:36:10.381Z,83.20
2023-12-11T08:37:13.349Z,72.00
2023-12-11T08:38:17.851Z,53.90
2023-12-11T08:39:20.175Z,31.80
2023-12-11T08:40:24.416Z,24.60
2023-12-11T08:41:27.173Z,15.50
2023-12-11T08:42:30.140Z,0.40
2023-12-11T08:43:33.233Z,9.82
2023-12-11T08:44:35.598Z,10.36
2023-12-11T08:45:38.063Z,6.60
2023-12-11T08:46:40.518Z,8.30
2023-12-11T08:47:43.439Z,6.10
2023-12-11T08:48:46.751Z,7.00
2023-12-11T08:49:49.441Z,4.73
2023-12-11T08:50:52.413Z,5.80
2023-12-11T08:51:55.259Z,3.80
2023-12-11T08:52:58.368Z,2.73
2023-12-11T08:54:01.309Z,3.27
2023-12-11T08:55:04.274Z,4.55
2023-12-11T08:56:07.082Z,3.80
2023-12-11T08:57:10.429Z,4.00
2023-12-11T08:58:12.932Z,4.00
2023-12-11T08:59:15.164Z,4.00
2023-12-11T09:00:19.006Z,2.27
2023-12-11T09:01:22.647Z,6.20
2023-12-11T09:02:25.040Z,4.10
2023-12-11T09:03:27.299Z,8.30
2023-12-11T09:04:30.276Z,5.50
2023-12-11T09:05:33.061Z,4.27
2023-12-11T09:06:36.644Z,6.45
2023-12-11T09:07:39.608Z,4.80
2023-12-11T09:08:42.490Z,3.30
2023-12-11T09:09:44.950Z,5.36
2023-12-11T09:10:47.809Z,4.64
2023-12-11T09:11:50.169Z,4.40
2023-12-11T09:12:54.978Z,5.50
2023-12-11T09:13:57.725Z,4.09
2023-12-11T09:15:00.575Z,5.50
2023-12-11T09:16:03.231Z,8.64
2023-12-11T09:17:05.643Z,5.40
2023-12-11T09:18:09.717Z,6.50
2023-12-11T09:19:12.576Z,7.30
2023-12-11T09:20:16.243Z,7.20
2023-12-11T09:21:19.621Z,5.27
2023-12-11T09:22:22.227Z,6.40
2023-12-11T09:23:24.773Z,7.00
2023-12-11T09:24:27.156Z,6.60
2023-12-11T09:25:30.944Z,6.90
2023-12-11T09:26:37.414Z,9.10
2023-12-11T09:27:42.691Z,7.70
2023-12-11T09:28:51.495Z,9.50
2023-12-11T09:29:53.378Z,8.70
2023-12-11T09:31:00.274Z,6.40
2023-12-11T09:32:05.353Z,5.10
2023-12-11T09:33:10.232Z,7.20
2023-12-11T09:34:15.550Z,7.50
2023-12-11T09:35:21.248Z,6.80
2023-12-11T09:36:32.009Z,7.10
2023-12-11T09:37:36.472Z,3.80
2023-12-11T09:38:40.423Z,5.20
2023-12-11T09:39:47.851Z,6.30
2023-12-11T09:40:51.806Z,3.80
2023-12-11T09:41:58.769Z,5.30
2023-12-11T09:43:10.858Z,5.80
2023-12-11T09:44:18.437Z,6.60
2023-12-11T09:45:25.820Z,7.50
2023-12-11T09:47:09.143Z,6.80
2023-12-11T09:48:15.372Z,3.60
2023-12-11T09:49:19.319Z,9.30
2023-12-11T09:50:25.666Z,14.20
2023-12-11T09:51:30.785Z,11.20
2023-12-11T09:52:41.201Z,6.90
2023-12-11T09:53:45.253Z,9.70
2023-12-11T09:54:50.415Z,8.30
2023-12-11T09:55:54.104Z,8.20
2023-12-11T09:57:00.481Z,10.30
2023-12-11T09:58:06.404Z,7.70
2023-12-11T09:59:16.597Z,5.90
2023-12-11T10:00:35.669Z,5.90
2023-12-11T10:01:48.794Z,7.30
2023-12-11T10:02:56.402Z,7.90
2023-12-11T10:04:01.262Z,9.20
2023-12-11T10:05:09.547Z,6.70
2023-12-11T10:06:21.457Z,4.90
2023-12-11T10:07:26.086Z,6.10
2023-12-11T10:08:32.656Z,8.70
2023-12-11T10:09:41.109Z,8.60
2023-12-11T10:10:46.610Z,10.50
2023-12-11T10:12:00.808Z,11.00
2023-12-11T10:13:06.498Z,10.60
2023-12-11T10:14:12.095Z,7.80
2023-12-11T10:16:34.196Z,8.80
2023-12-11T10:17:36.547Z,6.20
2023-12-11T10:18:48.980Z,8.10
2023-12-11T10:19:52.084Z,3.40
2023-12-11T10:20:56.549Z,5.20
2023-12-11T10:21:59.120Z,4.50
2023-12-11T10:23:16.700Z,6.30
2023-12-11T10:24:19.925Z,6.30
2023-12-11T10:25:30.035Z,7.60
2023-12-11T10:26:38.712Z,3.50
2023-12-11T10:27:41.574Z,6.00
2023-12-11T10:28:44.375Z,5.30
2023-12-11T10:29:47.095Z,5.40
2023-12-11T10:31:03.429Z,5.30
2023-12-11T10:32:06.204Z,3.50
2023-12-11T10:33:09.068Z,4.90
2023-12-11T10:34:11.782Z,5.50
2023-12-11T10:35:24.634Z,7.27
2023-12-11T10:36:27.918Z,3.40
2023-12-11T10:37:30.669Z,3.90
2023-12-11T10:38:34.533Z,7.18
2023-12-11T10:39:37.345Z,5.80
2023-12-11T10:41:51.886Z,7.00
2023-12-11T10:42:58.570Z,6.30
2023-12-11T10:44:12.640Z,4.80
2023-12-11T10:45:06.947Z,6.90
2023-12-11T10:46:12.105Z,7.20
2023-12-11T10:47:16.366Z,3.10
2023-12-11T10:48:19.825Z,6.40
2023-12-11T10:49:23.592Z,6.40
2023-12-11T10:50:27.024Z,10.40
2023-12-11T10:51:30.456Z,8.64
2023-12-11T10:52:34.564Z,8.30
2023-12-11T10:53:36.841Z,7.50
2023-12-11T10:54:40.218Z,9.90
2023-12-11T10:55:43.550Z,9.50
2023-12-11T10:56:48.226Z,11.30
2023-12-11T10:57:52.008Z,14.50
2023-12-11T10:58:55.264Z,14.40
2023-12-11T10:59:58.203Z,13.60
2023-12-11T11:01:02.788Z,15.70
2023-12-11T11:02:08.021Z,15.10
2023-12-11T11:03:11.813Z,15.00
2023-12-11T11:04:17.728Z,19.80
2023-12-11T11:05:21.286Z,17.00
2023-12-11T11:06:27.327Z,8.30
2023-12-11T11:07:33.978Z,10.80
2023-12-11T11:08:55.736Z,8.40
2023-12-11T11:10:04.634Z,10.50
2023-12-11T11:12:41.353Z,9.20
2023-12-11T11:13:59.246Z,8.00
2023-12-11T11:15:04.275Z,7.40
2023-12-11T11:16:07.308Z,8.00
2023-12-11T11:17:10.054Z,7.55
2023-12-11T11:19:29.020Z,8.70
2023-12-11T11:20:40.404Z,13.00
2023-12-11T11:22:04.483Z,14.60
2023-12-11T11:23:20.803Z,15.30
2023-12-11T11:24:25.780Z,13.80
2023-12-11T11:25:35.768Z,13.70
2023-12-11T11:26:40.147Z,11.70
2023-12-11T11:27:42.562Z,9.00
2023-12-11T11:28:45.278Z,11.20
2023-12-11T11:29:47.854Z,11.80
2023-12-11T11:30:53.091Z,8.00
2023-12-11T11:31:55.906Z,10.80
2023-12-11T11:32:58.549Z,10.60
2023-12-11T11:34:01.417Z,14.50
2023-12-11T11:35:07.245Z,13.70
2023-12-11T11:36:12.161Z,15.30
2023-12-11T11:37:17.168Z,12.50
2023-12-11T11:38:21.038Z,26.50
2023-12-11T11:39:24.591Z,24.30
2023-12-11T11:40:34.616Z,25.90
2023-12-11T11:41:38.971Z,25.40
2023-12-11T11:42:41.627Z,27.30
2023-12-11T11:43:48.461Z,22.60
2023-12-11T11:45:04.596Z,21.90
2023-12-11T11:46:08.346Z,23.10
2023-12-11T11:47:10.744Z,23.82
2023-12-11T11:48:14.136Z,25.40
2023-12-11T11:49:33.244Z,24.80
2023-12-11T11:50:36.488Z,21.10
2023-12-11T11:51:39.673Z,16.50
2023-12-11T11:52:43.912Z,22.50
2023-12-11T11:53:50.560Z,30.10
2023-12-11T11:55:02.511Z,25.30
2023-12-11T11:56:06.257Z,33.90
2023-12-11T11:57:08.748Z,20.50
2023-12-11T11:58:12.620Z,19.30
2023-12-11T11:59:15.012Z,13.70
2023-12-11T12:01:37.270Z,21.30
2023-12-11T12:02:40.141Z,25.60
2023-12-11T12:03:43.385Z,26.10
2023-12-11T12:04:46.341Z,30.10
2023-12-11T12:05:56.227Z,41.60
2023-12-11T12:07:01.838Z,40.30
2023-12-11T12:08:11.679Z,28.50
2023-12-11T12:09:20.975Z,19.60
2023-12-11T12:10:25.809Z,17.20
2023-12-11T12:11:28.689Z,18.60
2023-12-11T12:12:31.042Z,15.30
2023-12-11T12:13:36.570Z,9.40
2023-12-11T12:14:39.699Z,7.20
2023-12-11T12:15:43.348Z,4.40
2023-12-11T12:16:46.540Z,4.10
2023-12-11T12:17:52.973Z,2.80
2023-12-11T12:18:56.253Z,3.00
2023-12-11T12:20:00.303Z,7.20
2023-12-11T12:21:07.062Z,10.00
2023-12-11T12:22:11.971Z,10.60
2023-12-11T12:23:14.602Z,10.90
2023-12-11T12:24:17.326Z,11.30
2023-12-11T12:25:19.946Z,10.40
2023-12-11T12:26:24.574Z,9.30
2023-12-11T12:27:27.913Z,8.60
2023-12-11T12:28:30.984Z,7.70
2023-12-11T12:29:35.327Z,4.50
2023-12-11T12:30:39.231Z,3.10
2023-12-11T12:31:42.865Z,4.40
2023-12-11T12:32:50.460Z,4.30
2023-12-11T12:33:53.582Z,6.00
2023-12-11T12:34:56.435Z,4.70
2023-12-11T12:35:59.347Z,4.20
2023-12-11T12:37:03.813Z,13.82
2023-12-11T12:38:08.116Z,7.30
2023-12-11T12:39:16.112Z,12.20
2023-12-11T12:40:20.951Z,13.80
2023-12-11T12:41:23.499Z,13.60
2023-12-11T12:42:30.462Z,7.20
2023-12-11T12:43:33.044Z,10.60
2023-12-11T12:44:41.956Z,7.10
2023-12-11T12:45:44.168Z,7.20
2023-12-11T12:46:48.293Z,7.10
2023-12-11T12:47:50.614Z,6.50
2023-12-11T12:48:53.052Z,10.60
2023-12-11T12:49:56.540Z,9.90
2023-12-11T12:52:25.505Z,10.50
2023-12-11T12:53:27.719Z,8.00
2023-12-11T12:54:33.529Z,6.40
2023-12-11T12:55:35.837Z,7.00
2023-12-11T12:56:39.410Z,7.00
2023-12-11T12:57:41.854Z,10.00
2023-12-11T12:59:58.048Z,13.40
2023-12-11T13:01:01.586Z,11.18
2023-12-11T13:02:08.137Z,7.27
2023-12-11T13:03:10.839Z,7.30
2023-12-11T13:04:13.702Z,5.80
2023-12-11T13:05:16.025Z,7.45
2023-12-11T13:06:25.917Z,7.20
2023-12-11T13:07:28.635Z,6.20
2023-12-11T13:08:43.949Z,5.73
2023-12-11T13:09:46.596Z,4.70
2023-12-11T13:10:53.751Z,6.82
2023-12-11T13:11:56.557Z,4.50
2023-12-11T13:12:59.525Z,10.40
2023-12-11T13:14:01.823Z,6.91
2023-12-11T13:15:06.061Z,6.00
2023-12-11T13:16:09.767Z,9.10
2023-12-11T13:17:12.053Z,6.10
2023-12-11T13:18:14.816Z,8.30
2023-12-11T13:19:17.753Z,8.40
2023-12-11T13:20:22.915Z,6.50
2023-12-11T13:21:25.516Z,6.70
2023-12-11T13:22:28.128Z,4.10
2023-12-11T13:24:49.745Z,14.90
2023-12-11T13:25:51.953Z,14.60
2023-12-11T13:26:54.570Z,13.60
2023-12-11T13:27:56.950Z,8.40
2023-12-11T13:28:59.724Z,8.00
2023-12-11T13:30:02.402Z,10.70
2023-12-11T13:31:05.452Z,9.80
2023-12-11T13:32:08.153Z,8.50
2023-12-11T13:33:10.346Z,4.30
2023-12-11T13:34:13.319Z,15.80
2023-12-11T13:35:16.672Z,10.91
2023-12-11T13:36:21.395Z,10.90
2023-12-11T13:37:23.566Z,9.10
2023-12-11T13:38:26.551Z,10.70
2023-12-11T13:39:28.839Z,10.64
2023-12-11T13:40:31.685Z,16.20
2023-12-11T13:41:37.028Z,14.20
2023-12-11T13:42:39.340Z,20.40
2023-12-11T13:43:42.005Z,21.40
2023-12-11T13:44:44.116Z,26.60
2023-12-11T13:45:47.303Z,20.10
2023-12-11T13:46:50.428Z,22.70
2023-12-11T13:47:52.979Z,19.40
2023-12-11T13:48:55.768Z,11.50
2023-12-11T13:49:57.985Z,18.40
2023-12-11T13:51:01.100Z,29.90
2023-12-11T13:52:03.599Z,31.80
2023-12-11T13:53:06.628Z,38.50
2023-12-11T13:54:09.177Z,37.30
2023-12-11T13:55:12.328Z,26.40
2023-12-11T13:56:16.105Z,23.10
2023-12-11T13:57:22.264Z,18.20
2023-12-11T13:58:24.589Z,14.40
2023-12-11T13:59:27.173Z,14.20
2023-12-11T14:00:30.189Z,11.90
2023-12-11T14:01:32.407Z,9.00
2023-12-11T14:02:59.586Z,9.90
2023-12-11T14:03:39.476Z,11.40
2023-12-11T14:04:41.916Z,10.10
2023-12-11T14:05:44.182Z,8.50
2023-12-11T14:06:48.337Z,9.40
2023-12-11T14:07:50.529Z,12.90
2023-12-11T14:08:52.771Z,12.22